createdAt,value
2022-09-01T03:29:25.508Z,44.10
2022-09-01T03:31:52.365Z,45.50
2022-09-01T03:34:21.715Z,45.64
2022-09-01T03:36:51.032Z,45.23
2022-09-01T03:39:18.984Z,46.81
2022-09-01T03:41:45.817Z,46.43
2022-09-01T03:44:16.495Z,45.76
2022-09-01T03:46:44.017Z,46.67
2022-09-01T03:49:15.736Z,47.52
2022-09-01T03:51:45.648Z,46.59
2022-09-01T03:54:12.708Z,45.62
2022-09-01T03:56:42.069Z,47.79
2022-09-01T03:59:17.094Z,47.61
2022-09-01T04:01:45.505Z,46.60
2022-09-01T04:04:15.498Z,47.33
2022-09-01T04:06:43.880Z,47.85
2022-09-01T04:09:11.023Z,48.29
2022-09-01T04:11:42.554Z,51.92
2022-09-01T04:14:12.798Z,52.02
2022-09-01T04:16:58.194Z,51.04
2022-09-01T04:19:27.063Z,50.31
2022-09-01T04:21:56.922Z,49.46
2022-09-01T04:24:25.278Z,49.06
2022-09-01T04:26:52.831Z,48.85
2022-09-01T04:29:27.762Z,47.99
2022-09-01T04:32:05.384Z,46.99
2022-09-01T04:34:38.389Z,46.56
2022-09-01T04:37:15.013Z,45.32
2022-09-01T04:39:51.406Z,46.19
2022-09-01T04:42:24.286Z,46.22
2022-09-01T04:44:53.626Z,45.50
2022-09-01T04:47:35.516Z,45.84
2022-09-01T04:50:06.053Z,44.74
2022-09-01T04:52:32.589Z,44.49
2022-09-01T04:54:59.122Z,42.52
2022-09-01T04:57:27.739Z,44.96
2022-09-01T04:59:56.954Z,44.93
2022-09-01T05:02:27.395Z,44.57
2022-09-01T05:04:58.793Z,44.08
2022-09-01T05:07:25.402Z,43.26
2022-09-01T05:09:59.265Z,41.65
2022-09-01T05:12:27.992Z,43.32
2022-09-01T05:14:55.941Z,43.00
2022-09-01T05:17:23.446Z,42.92
2022-09-01T05:19:50.746Z,42.53
2022-09-01T05:22:23.162Z,42.52
2022-09-01T05:24:54.898Z,42.51
2022-09-01T05:27:22.985Z,42.77
2022-09-01T05:29:51.014Z,43.36
2022-09-01T05:32:17.584Z,43.47
2022-09-01T05:34:45.232Z,41.38
2022-09-01T05:37:14.697Z,41.90
2022-09-01T05:39:41.276Z,40.74
2022-09-01T05:42:08.566Z,40.39
2022-09-01T05:44:36.559Z,40.57
2022-09-01T05:47:05.558Z,40.73
2022-09-01T05:49:33.312Z,41.02
2022-09-01T05:52:00.560Z,41.70
2022-09-01T05:54:27.943Z,42.29
2022-09-01T05:57:12.808Z,42.26
2022-09-01T05:59:47.115Z,43.04
2022-09-01T06:02:13.846Z,43.23
2022-09-01T06:04:41.363Z,43.59
2022-09-01T06:07:11.878Z,44.19
2022-09-01T06:09:44.336Z,44.60
2022-09-01T06:12:18.613Z,45.19
2022-09-01T06:14:47.624Z,45.02
2022-09-01T06:17:16.830Z,45.62
2022-09-01T06:19:44.319Z,45.67
2022-09-01T06:22:11.829Z,45.72
2022-09-01T06:24:43.916Z,45.60
2022-09-01T06:27:11.824Z,45.54
2022-09-01T06:29:41.860Z,46.85
2022-09-01T06:32:12.624Z,46.85
2022-09-01T06:34:50.651Z,47.04
2022-09-01T06:37:22.574Z,47.23
2022-09-01T06:39:50.362Z,47.39
2022-09-01T06:42:17.577Z,47.52
2022-09-01T06:44:44.241Z,47.64
2022-09-01T06:47:10.682Z,43.92
2022-09-01T06:49:40.210Z,47.17
2022-09-01T06:52:06.993Z,47.89
2022-09-01T06:54:34.749Z,48.19
2022-09-01T06:59:52.531Z,47.73
2022-09-01T07:02:22.368Z,49.35
2022-09-01T07:04:53.600Z,49.75
2022-09-01T07:10:23.736Z,49.90
2022-09-01T07:13:08.090Z,49.83
2022-09-01T07:18:29.088Z,49.75
2022-09-01T07:21:07.683Z,50.07
2022-09-01T07:23:46.639Z,49.75
2022-09-01T07:26:26.929Z,49.12
2022-09-01T07:29:01.048Z,49.34
2022-09-01T07:39:53.414Z,46.97
2022-09-01T07:45:26.041Z,46.14
2022-09-01T07:47:54.011Z,45.59
2022-09-01T07:50:38.689Z,46.03
2022-09-01T07:53:08.641Z,45.75
2022-09-01T07:55:35.555Z,45.83
2022-09-01T07:58:02.207Z,45.24
2022-09-01T08:00:31.405Z,45.28
2022-09-01T08:02:59.198Z,45.16
2022-09-01T08:05:27.415Z,44.36
2022-09-01T08:07:54.630Z,44.36
2022-09-01T08:10:21.662Z,43.76
2022-09-01T08:12:56.203Z,43.80
2022-09-01T08:15:41.020Z,43.04
2022-09-01T08:18:08.971Z,42.87
2022-09-01T08:20:39.953Z,43.08
2022-09-01T08:23:07.321Z,42.70
2022-09-01T08:25:36.430Z,42.61
2022-09-01T08:28:03.394Z,42.20
2022-09-01T08:30:32.544Z,41.31
2022-09-01T08:33:10.290Z,41.45
2022-09-01T08:35:39.757Z,40.57
2022-09-01T08:38:06.439Z,40.63
2022-09-01T08:40:33.311Z,40.78
2022-09-01T08:43:19.746Z,40.82
2022-09-01T08:45:53.687Z,40.76
2022-09-01T08:52:12.682Z,40.53
2022-09-01T08:54:46.722Z,39.66
2022-09-01T08:57:19.508Z,40.03
2022-09-01T08:59:46.641Z,39.20
2022-09-01T09:02:23.752Z,40.03
2022-09-01T09:05:18.240Z,39.75
2022-09-01T09:08:06.497Z,39.04
2022-09-01T09:11:21.807Z,39.65
2022-09-01T09:14:11.855Z,39.10
2022-09-01T09:16:44.021Z,38.47
2022-09-01T09:19:18.940Z,38.13
2022-09-01T09:21:47.894Z,37.82
2022-09-01T09:24:26.277Z,37.64
2022-09-01T09:26:59.119Z,37.11
2022-09-01T09:29:27.322Z,36.59
2022-09-01T09:32:22.172Z,37.34
2022-09-01T09:34:49.696Z,36.24
2022-09-01T09:37:30.365Z,37.06
2022-09-01T09:40:25.462Z,37.04
2022-09-01T09:42:55.076Z,35.20
2022-09-01T09:45:23.961Z,34.40
2022-09-01T09:47:52.005Z,34.62
2022-09-01T09:50:23.486Z,34.83
2022-09-01T09:52:53.149Z,33.62
2022-09-01T09:55:30.953Z,33.60
2022-09-01T09:58:09.597Z,33.61
2022-09-01T10:00:36.656Z,31.54
2022-09-01T10:03:14.347Z,31.21
2022-09-01T10:05:48.424Z,31.82
2022-09-01T10:08:38.274Z,33.04
2022-09-01T10:11:06.650Z,30.29
2022-09-01T10:13:36.840Z,30.21
2022-09-01T10:16:21.863Z,30.61
2022-09-01T10:18:51.371Z,30.15
2022-09-01T10:21:22.472Z,30.54
2022-09-01T10:23:49.021Z,29.01
2022-09-01T10:26:23.578Z,30.17
2022-09-01T10:29:15.819Z,31.33
2022-09-01T10:31:43.534Z,29.00
2022-09-01T10:34:19.361Z,30.13
2022-09-01T10:36:54.917Z,29.71
2022-09-01T10:39:30.521Z,28.20
2022-09-01T10:42:09.062Z,28.11
2022-09-01T10:44:57.735Z,29.59
2022-09-01T10:47:34.157Z,26.87
2022-09-01T10:50:09.938Z,26.84
2022-09-01T10:52:43.304Z,27.88
2022-09-01T10:55:24.585Z,27.25
2022-09-01T11:01:48.301Z,28.24
2022-09-01T11:04:18.484Z,26.19
2022-09-01T11:07:13.306Z,25.87
2022-09-01T11:09:46.010Z,26.71
2022-09-01T11:12:38.439Z,26.91
2022-09-01T11:15:26.777Z,25.50
2022-09-01T11:17:53.356Z,25.83
2022-09-01T11:20:39.739Z,27.21
2022-09-01T11:23:11.709Z,25.86
2022-09-01T11:25:44.523Z,25.93
2022-09-01T11:28:23.494Z,26.35
2022-09-01T11:31:08.818Z,25.74
2022-09-01T11:33:49.255Z,24.88
2022-09-01T11:36:20.146Z,24.05
2022-09-01T11:38:50.623Z,23.35
2022-09-01T11:41:47.696Z,26.44
2022-09-01T11:44:27.203Z,24.95
2022-09-01T11:47:02.375Z,24.32
2022-09-01T11:49:39.471Z,24.72
2022-09-01T11:52:06.723Z,22.65
2022-09-01T11:54:43.848Z,23.97
2022-09-01T11:57:24.421Z,23.89
2022-09-01T11:59:51.604Z,21.64
2022-09-01T12:02:42.160Z,21.41
2022-09-01T12:05:27.633Z,24.15
2022-09-01T12:07:55.111Z,22.39
2022-09-01T12:10:40.459Z,24.49
2022-09-01T12:13:08.341Z,21.93
2022-09-01T12:15:43.429Z,22.09
2022-09-01T12:18:26.979Z,25.83
2022-09-01T12:20:57.298Z,21.88
2022-09-01T12:23:28.803Z,22.36
2022-09-01T12:25:58.436Z,21.29
2022-09-01T12:28:31.179Z,21.71
2022-09-01T12:31:07.502Z,22.12
2022-09-01T12:33:35.041Z,21.33
2022-09-01T12:36:31.889Z,23.45
2022-09-01T12:39:22.418Z,23.33
2022-09-01T12:42:11.529Z,23.12
2022-09-01T12:44:38.195Z,20.75
2022-09-01T12:47:08.003Z,21.20
2022-09-01T12:49:50.841Z,21.98
2022-09-01T12:52:25.508Z,21.38
2022-09-01T12:55:12.485Z,22.80
2022-09-01T12:57:48.637Z,21.27
2022-09-01T13:00:33.701Z,22.56
2022-09-01T13:03:05.118Z,21.38
2022-09-01T13:05:42.189Z,21.88
2022-09-01T13:08:22.809Z,22.75
2022-09-01T13:10:53.501Z,21.46
2022-09-01T13:13:21.834Z,21.71
2022-09-01T13:15:51.297Z,21.50
2022-09-01T13:18:19.476Z,22.06
2022-09-01T13:20:46.213Z,21.77
2022-09-01T13:23:12.969Z,21.60
2022-09-01T13:25:40.731Z,21.33
2022-09-01T13:28:08.991Z,21.31
2022-09-01T13:30:35.634Z,21.23
2022-09-01T13:33:19.164Z,21.68
2022-09-01T13:35:50.053Z,21.27
2022-09-01T13:38:18.139Z,21.25
2022-09-01T13:40:47.290Z,21.15
2022-09-01T13:43:15.672Z,21.16
2022-09-01T13:45:43.270Z,21.21
2022-09-01T13:48:16.246Z,20.54
2022-09-01T13:53:33.265Z,21.24
2022-09-01T13:55:59.884Z,20.98
2022-09-01T13:58:26.626Z,20.58
2022-09-01T14:00:53.273Z,20.29
2022-09-01T14:03:23.076Z,20.63
2022-09-01T14:05:50.686Z,20.66
2022-09-01T14:08:19.881Z,20.26
2022-09-01T14:10:51.016Z,20.24
2022-09-01T14:13:19.658Z,20.07
2022-09-01T14:15:47.219Z,20.46
2022-09-01T14:18:16.408Z,20.09
2022-09-01T14:20:45.792Z,20.14
2022-09-01T14:23:14.399Z,20.29
2022-09-01T14:25:46.731Z,20.90
2022-09-01T14:28:13.847Z,20.40
2022-09-01T14:30:43.472Z,20.65
2022-09-01T14:33:11.543Z,20.62
2022-09-01T14:35:45.067Z,21.22
2022-09-01T14:38:13.659Z,20.51
2022-09-01T14:40:41.626Z,20.55
2022-09-01T14:43:11.863Z,20.01
2022-09-01T14:45:38.709Z,19.54
2022-09-01T14:48:05.663Z,19.62
2022-09-01T14:50:32.864Z,19.78
2022-09-01T14:53:01.235Z,19.80
2022-09-01T14:55:30.662Z,20.23
2022-09-01T14:57:58.484Z,20.36
2022-09-01T15:00:25.456Z,20.30
2022-09-01T15:02:54.115Z,20.29
2022-09-01T15:05:21.400Z,20.25
2022-09-01T15:07:48.184Z,20.17
2022-09-01T15:10:25.225Z,20.47
2022-09-01T15:12:54.255Z,19.94
2022-09-01T15:15:20.792Z,19.37
2022-09-01T15:17:47.408Z,19.36
2022-09-01T15:20:33.453Z,19.83
2022-09-01T15:23:01.542Z,19.97
2022-09-01T15:25:28.162Z,19.41
2022-09-01T15:27:54.733Z,19.41
2022-09-01T15:30:22.679Z,19.62
2022-09-01T15:32:53.053Z,19.94
2022-09-01T15:35:22.277Z,19.68
2022-09-01T15:37:50.432Z,19.38
2022-09-01T15:40:18.464Z,19.58
2022-09-01T15:42:45.411Z,19.53
2022-09-01T15:45:16.101Z,20.04
2022-09-01T15:47:45.655Z,19.83
2022-09-01T15:50:16.888Z,20.04
2022-09-01T15:52:50.158Z,20.01
2022-09-01T15:55:25.746Z,19.97
2022-09-01T15:57:55.022Z,19.77
2022-09-01T16:00:24.808Z,20.14
2022-09-01T16:03:32.211Z,21.00
2022-09-01T16:06:21.821Z,21.17
2022-09-01T16:08:48.538Z,19.71
2022-09-01T16:11:35.413Z,19.59
2022-09-01T16:16:59.942Z,20.70
2022-09-01T16:19:35.839Z,20.49
2022-09-01T16:22:27.030Z,20.77
2022-09-01T16:24:57.877Z,20.14
2022-09-01T16:27:33.080Z,20.50
2022-09-01T16:30:06.554Z,20.72
2022-09-01T16:32:33.729Z,20.88
2022-09-01T16:35:04.036Z,21.23
2022-09-01T16:37:39.756Z,21.31
2022-09-01T16:40:29.953Z,21.62
2022-09-01T16:43:09.758Z,21.56
2022-09-01T16:46:05.510Z,21.58
2022-09-01T16:49:06.062Z,21.64
2022-09-01T16:52:08.222Z,21.91
2022-09-01T16:54:53.442Z,22.02
2022-09-01T16:57:22.966Z,21.51
2022-09-01T17:00:00.598Z,22.01
2022-09-01T17:02:52.624Z,22.17
2022-09-01T17:05:31.176Z,21.93
2022-09-01T17:07:58.120Z,21.92
2022-09-01T17:10:24.931Z,22.01
2022-09-01T17:12:56.232Z,21.85
2022-09-01T17:15:40.787Z,22.17
2022-09-01T17:18:22.814Z,22.15
2022-09-01T17:20:58.449Z,22.30
2022-09-01T17:23:29.847Z,22.62
2022-09-01T17:26:15.859Z,22.91
2022-09-01T17:29:12.059Z,23.11
2022-09-01T17:32:14.173Z,22.95
2022-09-01T17:34:56.095Z,23.55
2022-09-01T17:37:38.616Z,23.38
2022-09-01T17:40:33.057Z,23.91
2022-09-01T17:43:04.923Z,24.06
2022-09-01T17:45:51.217Z,24.31
2022-09-01T17:48:36.060Z,23.99
2022-09-01T17:51:23.564Z,24.15
2022-09-01T17:54:08.892Z,24.26
2022-09-01T17:57:09.379Z,24.31
2022-09-01T17:59:46.529Z,24.82
2022-09-01T18:02:44.784Z,24.98
2022-09-01T18:05:13.104Z,25.08
2022-09-01T18:07:58.474Z,25.03
2022-09-01T18:10:30.820Z,25.32
2022-09-01T18:13:03.669Z,25.80
2022-09-01T18:15:45.163Z,26.06
2022-09-01T18:18:27.549Z,25.58
2022-09-01T18:21:03.254Z,26.35
2022-09-01T18:23:32.296Z,26.52
2022-09-01T18:26:22.232Z,26.02
2022-09-01T18:28:53.758Z,26.40
2022-09-01T18:31:23.189Z,26.90
2022-09-01T18:34:42.257Z,26.26
2022-09-01T18:37:17.893Z,25.34
2022-09-01T18:40:04.808Z,26.73
2022-09-01T18:42:39.825Z,26.75
2022-09-01T18:45:25.228Z,26.83
2022-09-01T18:48:06.262Z,27.19
2022-09-01T18:50:47.086Z,27.10
2022-09-01T18:53:26.725Z,27.55
2022-09-01T18:56:35.588Z,27.36
2022-09-01T18:59:32.170Z,27.78
2022-09-01T19:02:34.682Z,27.54
2022-09-01T19:05:35.602Z,27.55
2022-09-01T19:08:20.842Z,28.19
2022-09-01T19:11:03.770Z,28.25
2022-09-01T19:14:01.129Z,28.30
2022-09-01T19:16:45.362Z,28.54
2022-09-01T19:19:29.723Z,29.37
2022-09-01T19:21:56.447Z,29.50
2022-09-01T19:24:47.072Z,28.59
2022-09-01T19:27:16.936Z,29.53
2022-09-01T19:29:57.800Z,29.16
2022-09-01T19:32:28.748Z,29.61
2022-09-01T19:35:11.810Z,29.76
2022-09-01T19:37:40.468Z,30.16
2022-09-01T19:40:08.742Z,30.10
2022-09-01T19:42:42.417Z,30.42
2022-09-01T19:45:15.072Z,30.58
2022-09-01T19:48:05.945Z,30.23
2022-09-01T19:50:41.432Z,30.02
2022-09-01T19:53:30.982Z,30.98
2022-09-01T19:56:09.732Z,31.43
2022-09-01T19:58:49.561Z,31.07
2022-09-01T20:01:22.817Z,31.46
2022-09-01T20:04:01.026Z,30.80
2022-09-01T20:06:34.303Z,31.14
2022-09-01T20:09:06.164Z,31.60
2022-09-01T20:11:43.293Z,30.99
2022-09-01T20:14:33.813Z,31.51
2022-09-01T20:17:04.546Z,31.89
2022-09-01T20:19:42.526Z,31.43
2022-09-01T20:22:31.387Z,31.30
2022-09-01T20:25:09.772Z,32.14
2022-09-01T20:28:00.897Z,32.07
2022-09-01T20:30:37.137Z,32.90
2022-09-01T20:33:12.358Z,32.65
2022-09-01T20:36:02.393Z,31.42
2022-09-01T20:39:02.533Z,32.99
2022-09-01T20:41:45.581Z,31.88
2022-09-01T20:44:26.512Z,34.01
2022-09-01T20:46:53.073Z,38.74
2022-09-01T20:49:19.533Z,33.36
2022-09-01T20:52:07.202Z,36.27
2022-09-01T20:54:46.325Z,37.14
2022-09-01T20:58:00.514Z,35.39
2022-09-01T21:00:29.863Z,40.81
2022-09-01T21:03:15.214Z,37.34
2022-09-01T21:06:17.305Z,36.67
2022-09-01T21:08:56.774Z,39.48
2022-09-01T21:11:40.981Z,37.42
2022-09-01T21:14:31.604Z,38.47
2022-09-01T21:17:07.795Z,39.03
2022-09-01T21:19:40.314Z,39.99
2022-09-01T21:22:08.442Z,39.69
2022-09-01T21:24:35.722Z,40.15
2022-09-01T21:27:07.278Z,39.15
2022-09-01T21:29:55.463Z,36.45
2022-09-01T21:32:22.659Z,40.03
2022-09-01T21:34:50.607Z,40.64
2022-09-01T21:37:18.499Z,39.49
2022-09-01T21:39:45.391Z,40.58
2022-09-01T21:42:13.143Z,39.53
2022-09-01T21:44:40.690Z,40.24
2022-09-01T21:47:07.311Z,37.76
2022-09-01T21:49:33.827Z,39.13
2022-09-01T21:52:00.228Z,35.00
2022-09-01T21:54:26.990Z,36.35
2022-09-01T21:56:53.497Z,37.87
2022-09-01T21:59:20.303Z,34.69
2022-09-01T22:01:47.234Z,37.96
2022-09-01T22:04:14.300Z,36.47
2022-09-01T22:06:40.963Z,37.08
2022-09-01T22:09:20.733Z,38.62
2022-09-01T22:11:49.828Z,39.17
2022-09-01T22:14:16.898Z,40.26
2022-09-01T22:16:43.511Z,39.82
2022-09-01T22:19:10.017Z,38.78
2022-09-01T22:21:36.723Z,35.29
2022-09-01T22:24:04.228Z,40.28
2022-09-01T22:26:32.643Z,41.82
2022-09-01T22:29:01.072Z,37.72
2022-09-01T22:31:30.328Z,37.82
2022-09-01T22:33:57.164Z,39.18
